Air Resources Laboratory banner image
Air Resources Laboratory web site National Oceanic and Atmospheric Administration (NOAA)

mn metar


KANE 202145Z 23006KT 10SM OVC019 M02/M06 A3000=
KAXN 202153Z AUTO 30009KT 9SM OVC010 01/M03 A2997 RMK AO2 SLP175 T00061033=
KBDE 202153Z AUTO 35009KT 4SM -SN OVC018 M09/M13 A2998 RMK AO2 SLP178 P0000
 T10941128=
KBRD 202153Z AUTO 26006KT 5SM HZ OVC013 M03/M07 A2995 RMK AO2 SLP166 T10281067=
KETH 202154Z AUTO 27006KT 10SM OVC021 02/M02 A3002 RMK AO2=
KFCM 202153Z 22005KT 10SM OVC022 M02/M06 A3001 RMK AO2 SLP176 T10171061=
KFOZ 202153Z AUTO 33004KT 10SM OVC013 M07/M09 A2992 RMK AO2=
KHIB 202153Z AUTO 31008KT 7SM OVC013 M07/M09 A2991 RMK AO2 SLP161 T10721094=
KMIC 202153Z 20005KT 10SM OVC019 M02/M06 A2999 RMK AO2 SLP169 T10171061=
KMSP 202153Z 24005KT 10SM OVC021 M02/M06 A3002 RMK AO2 SLP180 T10221061=
KORB 202153Z AUTO 31006KT 5SM -SN OVC016 M09/M12 A2989 RMK AO2=
KOWA 202151Z AUTO 22009KT 10SM SCT100 M02/M05 A3002 RMK AO2=
KPKD 202153Z AUTO 32012KT 10SM OVC012 M03/M06 A2994 RMK AO2 SLP169 T10281056=
KRWF 202153Z AUTO 28007KT 10SM CLR 03/M02 A3000 RMK AO2 SLP176 T00281017=
KSTC 202153Z 26003KT 10SM OVC016 M02/M06 A2998 RMK AO2 SLP179 T10171056=
KSTP 202153Z 25006KT 10SM OVC023 M02/M08 A3004 RMK AO2 SLP181 T10221078=